Flight Track Log - Related Links

Times and Time Zones

All times are in EDT time to prevent confusion due to time zone crossing. See the DAL1735 flight status page for this flight to view local times or setup timezone preferences in your user account.

Time Position Orientation Groundspeed Altitude Reporting Facility
EDT Latitude Longitude Course Direction KTS MPH feet Rate Location/Type
Thu 05:43:32 PM 33.9347 -118.4367 263° West 179 206 1,800  Level Los Angeles Center
Thu 05:44:34 PM 33.9272 -118.5133 263° West 227 261 3,600 2,256 Climbing Los Angeles Center
Thu 05:45:37 PM 33.9161 -118.6075 262° West 261 300 6,500 2,640 Climbing Los Angeles Center
Thu 05:46:00 PM 33.8781 -118.9797 259° West  Level Estimated
Thu 05:46:39 PM 33.9019 -118.7006 260° West 281 323 9,100  Level Los Angeles Center
Thu 05:47:00 PM 33.8616 -119.1225 259° West  Level Estimated
Thu 05:47:41 PM 33.8814 -118.8025 256° West 303 349 11,100  Level Los Angeles Center
Thu 05:48:00 PM 33.8449 -119.2652 263° West  Level Estimated
Thu 05:48:43 PM 33.8597 -118.9139 257° West 341 392 12,900  Level Los Angeles Center
Thu 05:49:45 PM 33.8478 -119.0300 263° West 350 403 15,700 2,177 Climbing Los Angeles Center
Thu 05:50:47 PM 33.8381 -119.1447 264° West 347 399 17,400 1,597 Climbing Los Angeles Center
Thu 05:51:49 PM 33.8272 -119.2644 264° West 362 417 19,000 1,597 Climbing Los Angeles Center
Thu 05:52:51 PM 33.8131 -119.4136 264° West 379 436 20,700 1,536 Climbing Los Angeles Center
Thu 05:53:54 PM 33.8028 -119.5414 265° West 384 442 22,200 1,392 Climbing Los Angeles Center
Thu 05:54:56 PM 33.7894 -119.6722 263° West 394 453 23,600 1,403 Climbing Los Angeles Center
Thu 05:55:58 PM 33.7778 -119.8042 264° West 397 457 25,100 1,355 Climbing Los Angeles Center
Thu 05:57:00 PM 33.7644 -119.9392 263° West 404 465 26,400 1,258 Climbing Los Angeles Center
Thu 05:58:02 PM 33.7517 -120.0817 264° West 406 467 27,700 1,113 Climbing Los Angeles Center
Thu 05:59:04 PM 33.7381 -120.2200 263° West 413 475 28,700 919 Climbing Los Angeles Center
Thu 06:00:06 PM 33.7239 -120.3617 263° West 424 488 29,600 1,161 Climbing Los Angeles Center
Thu 06:01:08 PM 33.7064 -120.5319 263° West 426 490 31,100 1,200 Climbing Los Angeles Center
Thu 06:02:11 PM 33.6925 -120.6739 263° West 428 493 32,100 1,008 Climbing Los Angeles Center
Thu 06:03:13 PM 33.6772 -120.8147 263° West 426 490 33,200 919 Climbing Los Angeles Center
Thu 06:04:15 PM 33.6631 -120.9539 263° West 420 483 34,000 387 Climbing Los Angeles Center
Thu 06:05:17 PM 33.6492 -121.0931 263° West 418 481 34,000  Level Los Angeles Center
Thu 06:06:19 PM 33.6336 -121.2317 262° West 419 482 34,000  Level Los Angeles Center
Thu 06:07:21 PM 33.6153 -121.4014 263° West 427 491 34,000  Level Los Angeles Center
Thu 06:08:23 PM 33.5997 -121.5433 263° West 429 494 34,000  Level Los Angeles Center
Thu 06:09:25 PM 33.5853 -121.6847 263° West 429 494 34,000  Level Los Angeles Center
Thu 06:10:28 PM 33.5692 -121.8261 262° West 428 493 34,000  Level Los Angeles Center
Thu 06:11:30 PM 33.5528 -121.9661 262° West 426 490 34,000  Level Los Angeles Center
Thu 06:12:32 PM 33.5378 -122.1072 263° West 427 491 34,000  Level Los Angeles Center
Thu 06:13:34 PM 33.5183 -122.2772 262° West 429 494 34,000  Level Los Angeles Center
Thu 06:14:36 PM 33.5008 -122.4167 261° West 426 490 34,000  Level Los Angeles Center
Thu 06:15:38 PM 33.4850 -122.5606 263° West 431 496 34,000  Level Los Angeles Center
Thu 06:16:40 PM 33.4606 -122.7025 258° West 437 503 34,000  Level Los Angeles Center
Thu 06:17:42 PM 33.4297 -122.8408 255° West 434 499 34,000  Level Los Angeles Center
Thu 06:19:00 PM 33.3921 -123.0189 256° West  Level FlightAware Approximate
Thu 06:26:00 PM 33.1853 -123.9752 256° West  Level FlightAware Approximate
Thu 06:27:00 PM 33.1552 -124.1115 255° West  Level FlightAware Approximate
Thu 06:28:00 PM 33.1249 -124.2476 255° West  Level FlightAware Approximate
Thu 06:29:00 PM 33.0945 -124.3837 255° West  Level FlightAware Approximate
Thu 06:30:00 PM 33.0665 -124.5174 255° West  Level FlightAware Approximate
Thu 06:31:00 PM 33.0361 -124.6534 255° West  Level FlightAware Approximate
Thu 06:32:00 PM 33.0055 -124.7893 255° West  Level FlightAware Approximate
Thu 06:33:00 PM 32.9748 -124.9251 255° West  Level FlightAware Approximate
Thu 06:34:00 PM 32.9440 -125.0608 255° West  Level FlightAware Approximate
Thu 06:35:00 PM 32.9130 -125.1965 255° West  Level FlightAware Approximate
Thu 06:36:00 PM 32.8818 -125.3322 255° West  Level FlightAware Approximate
Thu 06:37:00 PM 32.8505 -125.4678 255° West  Level FlightAware Approximate
Thu 06:38:00 PM 32.8190 -125.6032 255° West  Level FlightAware Approximate
Thu 06:39:00 PM 32.7874 -125.7386 255° West  Level FlightAware Approximate
Thu 06:40:00 PM 32.7556 -125.8739 254° West  Level FlightAware Approximate
Thu 06:41:00 PM 32.7237 -126.0091 254° West  Level FlightAware Approximate
Thu 06:42:00 PM 32.6917 -126.1442 254° West  Level FlightAware Approximate
Thu 06:43:00 PM 32.6595 -126.2792 254° West  Level FlightAware Approximate
Thu 06:44:00 PM 32.6272 -126.4140 254° West  Level FlightAware Approximate
Thu 06:45:00 PM 32.5947 -126.5488 254° West  Level FlightAware Approximate
Thu 06:46:00 PM 32.5620 -126.6835 254° West  Level FlightAware Approximate
Thu 06:47:00 PM 32.5293 -126.8181 254° West  Level FlightAware Approximate
Thu 06:47:11 PM 33.0667 -124.5167 255° West 450 518 34,000  Level Oakland Oceanic (ODAPS)
Thu 06:48:00 PM 32.4964 -126.9526 254° West  Level FlightAware Approximate
Thu 06:49:00 PM 32.4633 -127.0870 254° West  Level FlightAware Approximate
Thu 06:50:00 PM 32.4301 -127.2213 254° West  Level FlightAware Approximate
Thu 06:51:00 PM 32.3968 -127.3555 254° West  Level FlightAware Approximate
Thu 06:52:00 PM 32.3633 -127.4896 254° West  Level FlightAware Approximate
Thu 06:53:00 PM 32.2490 -127.9423 253° West 450 518 34,000  Level FlightAware Transoceanic
Thu 06:54:00 PM 32.2130 -128.0837 253° West 450 518 34,000  Level FlightAware Transoceanic
Thu 06:55:00 PM 32.1767 -128.2249 253° West 450 518 34,000  Level FlightAware Transoceanic
Thu 06:56:00 PM 32.1404 -128.3660 253° West 450 518 34,000  Level FlightAware Transoceanic
Thu 06:57:00 PM 32.1038 -128.5071 253° West 450 518 34,000  Level FlightAware Transoceanic
Thu 06:58:00 PM 32.0671 -128.6480 253° West 450 518 34,000  Level FlightAware Transoceanic
Thu 06:59:00 PM 32.0303 -128.7888 253° West 450 518 34,000  Level FlightAware Transoceanic
Thu 07:00:00 PM 31.9933 -128.9294 253° West 450 518 34,000  Level FlightAware Transoceanic
Thu 07:01:00 PM 31.9561 -129.0700 253° West 450 518 34,000  Level FlightAware Transoceanic
Thu 07:02:00 PM 31.9188 -129.2105 253° West 450 518 34,000  Level FlightAware Transoceanic
Thu 07:03:00 PM 31.8813 -129.3508 253° West 450 518 34,000  Level FlightAware Transoceanic
Thu 07:04:00 PM 31.8437 -129.4910 252° West 450 518 34,000  Level FlightAware Transoceanic
Thu 07:05:00 PM 31.8059 -129.6311 252° West 450 518 34,000  Level FlightAware Transoceanic
Thu 07:06:00 PM 31.7680 -129.7711 252° West 450 518 34,000  Level FlightAware Transoceanic
Thu 07:07:00 PM 31.7299 -129.9110 252° West 450 518 34,000  Level FlightAware Transoceanic
Thu 07:08:00 PM 31.6917 -130.0508 252° West 450 518 34,000  Level FlightAware Transoceanic
Thu 07:09:00 PM 31.6533 -130.1904 252° West 450 518 34,000  Level FlightAware Transoceanic
Thu 07:10:00 PM 31.6147 -130.3300 252° West 450 518 34,000  Level FlightAware Transoceanic
Thu 07:11:00 PM 31.5760 -130.4694 252° West 450 518 34,000  Level FlightAware Transoceanic
Thu 07:12:00 PM 31.5372 -130.6087 252° West 450 518 34,000  Level FlightAware Transoceanic
Thu 07:13:00 PM 31.4982 -130.7479 252° West 450 518 34,000  Level FlightAware Transoceanic
Thu 07:14:00 PM 31.4590 -130.8869 252° West 450 518 34,000  Level FlightAware Transoceanic
Thu 07:15:00 PM 31.4197 -131.0259 252° West 450 518 34,000  Level FlightAware Transoceanic
Thu 07:16:00 PM 31.3803 -131.1647 252° West 450 518 34,000  Level FlightAware Transoceanic
Thu 07:17:00 PM 31.3407 -131.3035 251° West 450 518 34,000  Level FlightAware Transoceanic
Thu 07:18:00 PM 31.3009 -131.4421 251° West 450 518 34,000  Level FlightAware Transoceanic
Thu 07:19:00 PM 31.2610 -131.5806 251° West 450 518 34,000  Level FlightAware Transoceanic
Thu 07:20:00 PM 31.2210 -131.7189 251° West 450 518 34,000  Level FlightAware Transoceanic
Thu 07:21:00 PM 31.1808 -131.8572 251° West 450 518 34,000  Level FlightAware Transoceanic
Thu 07:22:00 PM 31.1405 -131.9953 251° West 450 518 34,000  Level FlightAware Transoceanic
Thu 07:23:00 PM 31.1000 -132.1333 251° West 450 518 34,000  Level FlightAware Transoceanic
Thu 07:24:00 PM 31.0593 -132.2717 251° West 450 518 34,000  Level FlightAware Transoceanic
Thu 07:25:00 PM 31.0184 -132.4099 251° West 450 518 34,000  Level FlightAware Transoceanic
Thu 07:26:00 PM 30.9774 -132.5481 251° West 450 518 34,000  Level FlightAware Transoceanic
Thu 07:27:00 PM 30.9363 -132.6861 251° West 450 518 34,000  Level FlightAware Transoceanic
Thu 07:28:00 PM 30.8950 -132.8240 251° West 450 518 34,000  Level FlightAware Transoceanic
Thu 07:29:00 PM 30.8536 -132.9618 251° West 450 518 34,000  Level FlightAware Transoceanic
Thu 07:29:49 PM 31.1000 -132.1333 251° West 443 510 34,000  Level Oakland Oceanic (ODAPS)
Thu 07:30:00 PM 30.8120 -133.0994 251° West 450 518 34,000  Level FlightAware Transoceanic
Thu 07:31:00 PM 30.7703 -133.2370 251° West 450 518 34,000  Level FlightAware Transoceanic
Thu 07:32:00 PM 30.7284 -133.3744 250° West 450 518 34,000  Level FlightAware Transoceanic
Thu 07:33:00 PM 30.6864 -133.5117 250° West 450 518 34,000  Level FlightAware Transoceanic
Thu 07:34:00 PM 30.6442 -133.6489 250° West 450 518 34,000  Level FlightAware Transoceanic
Thu 07:35:00 PM 30.6019 -133.7859 250° West 450 518 34,000  Level FlightAware Transoceanic
Thu 07:36:00 PM 30.5695 -133.8905 250° West 443 510 34,000  Level FlightAware Transoceanic
Thu 07:37:00 PM 30.5277 -134.0249 250° West 443 510 34,000  Level FlightAware Transoceanic
Thu 07:38:00 PM 30.4858 -134.1591 250° West 443 510 34,000  Level FlightAware Transoceanic
Thu 07:39:00 PM 30.4437 -134.2932 250° West 443 510 34,000  Level FlightAware Transoceanic
Thu 07:40:00 PM 30.4015 -134.4272 250° West 443 510 34,000  Level FlightAware Transoceanic
Thu 07:41:00 PM 30.3592 -134.5611 250° West 443 510 34,000  Level FlightAware Transoceanic
Thu 07:42:00 PM 30.3167 -134.6949 250° West 443 510 34,000  Level FlightAware Transoceanic
Thu 07:43:00 PM 30.2741 -134.8286 250° West 443 510 34,000  Level FlightAware Transoceanic
Thu 07:44:00 PM 30.2314 -134.9621 250° West 443 510 34,000  Level FlightAware Transoceanic
Thu 07:45:00 PM 30.1885 -135.0956 250° West 443 510 34,000  Level FlightAware Transoceanic
Thu 07:46:00 PM 30.1455 -135.2289 250° West 443 510 34,000  Level FlightAware Transoceanic
Thu 07:47:00 PM 30.1024 -135.3621 249° West 443 510 34,000  Level FlightAware Transoceanic
Thu 07:48:00 PM 30.0591 -135.4952 249° West 443 510 34,000  Level FlightAware Transoceanic
Thu 07:49:00 PM 30.0157 -135.6281 249° West 443 510 34,000  Level FlightAware Transoceanic
Thu 07:50:00 PM 29.9721 -135.7610 249° West 443 510 34,000  Level FlightAware Transoceanic
Thu 07:51:00 PM 29.9284 -135.8937 249° West 443 510 34,000  Level FlightAware Transoceanic
Thu 07:52:00 PM 29.8846 -136.0263 249° West 443 510 34,000  Level FlightAware Transoceanic
Thu 07:53:00 PM 29.8407 -136.1588 249° West 443 510 34,000  Level FlightAware Transoceanic
Thu 07:54:00 PM 29.7966 -136.2912 249° West 443 510 34,000  Level FlightAware Transoceanic
Thu 07:55:00 PM 29.7524 -136.4235 249° West 443 510 34,000  Level FlightAware Transoceanic
Thu 07:56:00 PM 29.7080 -136.5556 249° West 443 510 34,000  Level FlightAware Transoceanic
Thu 07:57:00 PM 29.6636 -136.6877 249° West 443 510 34,000  Level FlightAware Transoceanic
Thu 07:58:00 PM 29.6190 -136.8196 249° West 443 510 34,000  Level FlightAware Transoceanic
Thu 07:59:00 PM 29.5742 -136.9514 249° West 443 510 34,000  Level FlightAware Transoceanic
Thu 08:00:00 PM 29.5294 -137.0831 249° West 443 510 34,000  Level FlightAware Transoceanic
Thu 08:01:00 PM 29.4844 -137.2146 249° West 443 510 34,000  Level FlightAware Transoceanic
Thu 08:02:00 PM 29.4393 -137.3461 248° West 443 510 34,000  Level FlightAware Transoceanic
Thu 08:03:00 PM 29.3940 -137.4774 248° West 443 510 34,000  Level FlightAware Transoceanic
Thu 08:04:00 PM 29.3486 -137.6086 248° West 443 510 34,000  Level FlightAware Transoceanic
Thu 08:05:00 PM 29.3031 -137.7397 248° West 443 510 34,000  Level FlightAware Transoceanic
Thu 08:06:00 PM 29.2575 -137.8707 248° West 443 510 34,000  Level FlightAware Transoceanic
Thu 08:07:00 PM 29.2117 -138.0016 248° West 443 510 34,000  Level FlightAware Transoceanic
Thu 08:08:00 PM 29.1658 -138.1323 248° West 443 510 34,000  Level FlightAware Transoceanic
Thu 08:09:00 PM 29.1198 -138.2629 248° West 443 510 34,000  Level FlightAware Transoceanic
Thu 08:10:00 PM 29.0737 -138.3934 248° West 443 510 34,000  Level FlightAware Transoceanic
Thu 08:11:00 PM 29.0274 -138.5238 248° West 443 510 34,000  Level FlightAware Transoceanic
Thu 08:12:00 PM 28.9810 -138.6541 248° West 443 510 34,000  Level FlightAware Transoceanic
Thu 08:13:00 PM 28.9345 -138.7843 248° West 443 510 34,000  Level FlightAware Transoceanic
Thu 08:14:00 PM 28.8878 -138.9143 248° West 443 510 34,000  Level FlightAware Transoceanic
Thu 08:15:00 PM 28.8411 -139.0443 248° West 443 510 34,000  Level FlightAware Transoceanic
Thu 08:16:00 PM 28.7942 -139.1741 248° West 443 510 34,000  Level FlightAware Transoceanic
Thu 08:17:00 PM 28.7471 -139.3038 247° West 443 510 34,000  Level FlightAware Transoceanic
Thu 08:18:00 PM 28.7000 -139.4333 247° West 443 510 34,000  Level FlightAware Transoceanic
Thu 08:19:00 PM 28.6521 -139.5634 247° West 443 510 34,000  Level FlightAware Transoceanic
Thu 08:20:00 PM 28.6041 -139.6934 247° West 443 510 34,000  Level FlightAware Transoceanic
Thu 08:21:00 PM 28.5560 -139.8233 247° West 443 510 34,000  Level FlightAware Transoceanic
Thu 08:22:00 PM 28.5078 -139.9530 247° West 443 510 34,000  Level FlightAware Transoceanic
Thu 08:22:41 PM 28.7000 -139.4333 247° West 446 513 34,000  Level Oakland Oceanic (ODAPS)
Thu 08:23:00 PM 28.4594 -140.0827 247° West 443 510 34,000  Level FlightAware Transoceanic
Thu 08:24:00 PM 28.4109 -140.2122 247° West 443 510 34,000  Level FlightAware Transoceanic
Thu 08:25:00 PM 28.3623 -140.3416 247° West 443 510 34,000  Level FlightAware Transoceanic
Thu 08:26:00 PM 28.3136 -140.4708 247° West 443 510 34,000  Level FlightAware Transoceanic
Thu 08:27:00 PM 28.2647 -140.6000 247° West 443 510 34,000  Level FlightAware Transoceanic
Thu 08:28:00 PM 28.2157 -140.7290 247° West 446 513 34,000  Level FlightAware Transoceanic
Thu 08:29:00 PM 28.1666 -140.8580 247° West 446 513 34,000  Level FlightAware Transoceanic
Thu 08:30:00 PM 28.1174 -140.9868 247° West 446 513 34,000  Level FlightAware Transoceanic
Thu 08:31:00 PM 28.0681 -141.1154 246° West 446 513 34,000  Level FlightAware Transoceanic
Thu 08:32:00 PM 28.0186 -141.2440 246° West 446 513 34,000  Level FlightAware Transoceanic
Thu 08:33:00 PM 27.9690 -141.3724 246° West 446 513 34,000  Level FlightAware Transoceanic
Thu 08:34:00 PM 27.9193 -141.5008 246° West 446 513 34,000  Level FlightAware Transoceanic
Thu 08:35:00 PM 27.8695 -141.6290 246° West 446 513 34,000  Level FlightAware Transoceanic
Thu 08:36:00 PM 27.8196 -141.7571 246° West 446 513 34,000  Level FlightAware Transoceanic
Thu 08:37:00 PM 27.7695 -141.8850 246° West 446 513 34,000  Level FlightAware Transoceanic
Thu 08:38:00 PM 27.7194 -142.0129 246° West 446 513 34,000  Level FlightAware Transoceanic
Thu 08:39:00 PM 27.6691 -142.1406 246° West 446 513 34,000  Level FlightAware Transoceanic
Thu 08:40:00 PM 27.6187 -142.2682 246° West 446 513 34,000  Level FlightAware Transoceanic
Thu 08:41:00 PM 27.5681 -142.3958 246° West 446 513 34,000  Level FlightAware Transoceanic
Thu 08:42:00 PM 27.5175 -142.5231 246° West 446 513 34,000  Level FlightAware Transoceanic
Thu 08:43:00 PM 27.4667 -142.6504 246° West 446 513 34,000  Level FlightAware Transoceanic
Thu 08:44:00 PM 27.4159 -142.7776 246° West 446 513 34,000  Level FlightAware Transoceanic
Thu 08:45:00 PM 27.3649 -142.9046 246° West 446 513 34,000  Level FlightAware Transoceanic
Thu 08:46:00 PM 27.3138 -143.0315 246° West 446 513 34,000  Level FlightAware Transoceanic
Thu 08:47:00 PM 27.2626 -143.1583 246° West 446 513 34,000  Level FlightAware Transoceanic
Thu 08:48:00 PM 27.2113 -143.2850 245° Southwest 446 513 34,000  Level FlightAware Transoceanic
Thu 08:49:00 PM 27.1598 -143.4115 245° Southwest 446 513 34,000  Level FlightAware Transoceanic
Thu 08:50:00 PM 27.1082 -143.5380 245° Southwest 446 513 34,000  Level FlightAware Transoceanic
Thu 08:51:00 PM 27.0566 -143.6643 245° Southwest 446 513 34,000  Level FlightAware Transoceanic
Thu 08:52:00 PM 27.0048 -143.7905 245° Southwest 446 513 34,000  Level FlightAware Transoceanic
Thu 08:53:00 PM 26.9529 -143.9166 245° Southwest 446 513 34,000  Level FlightAware Transoceanic
Thu 08:54:00 PM 26.9009 -144.0426 245° Southwest 446 513 34,000  Level FlightAware Transoceanic
Thu 08:55:00 PM 26.8488 -144.1685 245° Southwest 446 513 34,000  Level FlightAware Transoceanic
Thu 08:56:00 PM 26.7966 -144.2942 245° Southwest 446 513 34,000  Level FlightAware Transoceanic
Thu 08:57:00 PM 26.7442 -144.4199 245° Southwest 446 513 34,000  Level FlightAware Transoceanic
Thu 08:58:00 PM 26.6918 -144.5454 245° Southwest 446 513 34,000  Level FlightAware Transoceanic
Thu 08:59:00 PM 26.6392 -144.6708 245° Southwest 446 513 34,000  Level FlightAware Transoceanic
Thu 09:00:00 PM 26.5865 -144.7961 245° Southwest 446 513 34,000  Level FlightAware Transoceanic
Thu 09:01:00 PM 26.5338 -144.9213 245° Southwest 446 513 34,000  Level FlightAware Transoceanic
Thu 09:02:00 PM 26.4809 -145.0463 245° Southwest 446 513 34,000  Level FlightAware Transoceanic
Thu 09:03:00 PM 26.4279 -145.1713 245° Southwest 446 513 34,000  Level FlightAware Transoceanic
Thu 09:04:00 PM 26.3748 -145.2961 245° Southwest 446 513 34,000  Level FlightAware Transoceanic
Thu 09:05:00 PM 26.3215 -145.4208 245° Southwest 446 513 34,000  Level FlightAware Transoceanic
Thu 09:06:00 PM 26.2682 -145.5454 244° Southwest 446 513 34,000  Level FlightAware Transoceanic
Thu 09:07:00 PM 26.2148 -145.6699 244° Southwest 446 513 34,000  Level FlightAware Transoceanic
Thu 09:08:00 PM 26.1612 -145.7943 244° Southwest 446 513 34,000  Level FlightAware Transoceanic
Thu 09:09:00 PM 26.1076 -145.9185 244° Southwest 446 513 34,000  Level FlightAware Transoceanic
Thu 09:10:00 PM 26.0539 -146.0426 244° Southwest 446 513 34,000  Level FlightAware Transoceanic
Thu 09:11:00 PM 26.0000 -146.1667 244° Southwest 446 513 34,000  Level FlightAware Transoceanic
Thu 09:12:00 PM 25.9473 -146.2883 244° Southwest 446 513 34,000  Level FlightAware Transoceanic
Thu 09:13:00 PM 25.8945 -146.4098 244° Southwest 446 513 34,000  Level FlightAware Transoceanic
Thu 09:14:00 PM 25.8416 -146.5313 244° Southwest 446 513 34,000  Level FlightAware Transoceanic
Thu 09:15:00 PM 25.7886 -146.6526 244° Southwest 446 513 34,000  Level FlightAware Transoceanic
Thu 09:16:00 PM 25.7355 -146.7738 244° Southwest 446 513 34,000  Level FlightAware Transoceanic
Thu 09:17:00 PM 25.6822 -146.8949 244° Southwest 446 513 34,000  Level FlightAware Transoceanic
Thu 09:18:00 PM 25.6289 -147.0159 244° Southwest 446 513 34,000  Level FlightAware Transoceanic
Thu 09:19:00 PM 25.5755 -147.1367 244° Southwest 446 513 34,000  Level FlightAware Transoceanic
Thu 09:20:00 PM 25.5220 -147.2575 244° Southwest 446 513 34,000  Level FlightAware Transoceanic
Thu 09:21:00 PM 25.4684 -147.3782 244° Southwest 446 513 34,000  Level FlightAware Transoceanic
Thu 09:22:00 PM 25.4147 -147.4987 244° Southwest 446 513 34,000  Level FlightAware Transoceanic
Thu 09:23:00 PM 25.3609 -147.6192 244° Southwest 446 513 34,000  Level FlightAware Transoceanic
Thu 09:24:00 PM 25.3070 -147.7395 244° Southwest 446 513 34,000  Level FlightAware Transoceanic
Thu 09:24:58 PM 26.0000 -146.1667 244° Southwest 436 502 34,000  Level Oakland Oceanic (ODAPS)
Thu 09:25:00 PM 25.2530 -147.8598 244° Southwest 446 513 34,000  Level FlightAware Transoceanic
Thu 09:26:00 PM 25.1989 -147.9799 244° Southwest 446 513 34,000  Level FlightAware Transoceanic
Thu 09:27:00 PM 25.1447 -148.0999 243° Southwest 446 513 34,000  Level FlightAware Transoceanic
Thu 09:28:00 PM 25.0904 -148.2198 243° Southwest 446 513 34,000  Level FlightAware Transoceanic
Thu 09:29:00 PM 25.0360 -148.3396 243° Southwest 446 513 34,000  Level FlightAware Transoceanic
Thu 09:30:00 PM 24.9816 -148.4593 243° Southwest 446 513 34,000  Level FlightAware Transoceanic
Thu 09:31:00 PM 24.9270 -148.5789 243° Southwest 436 502 34,000  Level FlightAware Transoceanic
Thu 09:32:00 PM 24.8723 -148.6984 243° Southwest 436 502 34,000  Level FlightAware Transoceanic
Thu 09:33:00 PM 24.8175 -148.8178 243° Southwest 436 502 34,000  Level FlightAware Transoceanic
Thu 09:34:00 PM 24.7627 -148.9371 243° Southwest 436 502 34,000  Level FlightAware Transoceanic
Thu 09:35:00 PM 24.7077 -149.0562 243° Southwest 436 502 34,000  Level FlightAware Transoceanic
Thu 09:36:00 PM 24.6527 -149.1753 243° Southwest 436 502 34,000  Level FlightAware Transoceanic
Thu 09:37:00 PM 24.5975 -149.2943 243° Southwest 436 502 34,000  Level FlightAware Transoceanic
Thu 09:38:00 PM 24.5423 -149.4131 243° Southwest 436 502 34,000  Level FlightAware Transoceanic
Thu 09:39:00 PM 24.4869 -149.5319 243° Southwest 436 502 34,000  Level FlightAware Transoceanic
Thu 09:40:00 PM 24.4315 -149.6505 243° Southwest 436 502 34,000  Level FlightAware Transoceanic
Thu 09:41:00 PM 24.3760 -149.7691 243° Southwest 436 502 34,000  Level FlightAware Transoceanic
Thu 09:42:00 PM 24.3204 -149.8875 243° Southwest 436 502 34,000  Level FlightAware Transoceanic
Thu 09:43:00 PM 24.2647 -150.0058 243° Southwest 436 502 34,000  Level FlightAware Transoceanic
Thu 09:44:00 PM 24.2089 -150.1241 243° Southwest 436 502 34,000  Level FlightAware Transoceanic
Thu 09:45:00 PM 24.1530 -150.2422 243° Southwest 436 502 34,000  Level FlightAware Transoceanic
Thu 09:46:00 PM 24.0970 -150.3602 243° Southwest 436 502 34,000  Level FlightAware Transoceanic
Thu 09:47:00 PM 24.0410 -150.4782 242° Southwest 436 502 34,000  Level FlightAware Transoceanic
Thu 09:48:00 PM 23.9848 -150.5960 242° Southwest 436 502 34,000  Level FlightAware Transoceanic
Thu 09:49:00 PM 23.9286 -150.7137 242° Southwest 436 502 34,000  Level FlightAware Transoceanic
Thu 09:50:00 PM 23.8722 -150.8313 242° Southwest 436 502 34,000  Level FlightAware Transoceanic
Thu 09:51:00 PM 23.8158 -150.9488 242° Southwest 436 502 34,000  Level FlightAware Transoceanic
Thu 09:52:00 PM 23.7593 -151.0662 242° Southwest 436 502 34,000  Level FlightAware Transoceanic
Thu 09:53:00 PM 23.7027 -151.1835 242° Southwest 436 502 34,000  Level FlightAware Transoceanic
Thu 09:54:00 PM 23.6460 -151.3007 242° Southwest 436 502 34,000  Level FlightAware Transoceanic
Thu 09:55:00 PM 23.5892 -151.4178 242° Southwest 436 502 34,000  Level FlightAware Transoceanic
Thu 09:56:00 PM 23.5324 -151.5348 242° Southwest 436 502 34,000  Level FlightAware Transoceanic
Thu 09:57:00 PM 23.4754 -151.6517 242° Southwest 436 502 34,000  Level FlightAware Transoceanic
Thu 09:58:00 PM 23.4184 -151.7685 242° Southwest 436 502 34,000  Level FlightAware Transoceanic
Thu 09:59:00 PM 23.3612 -151.8852 242° Southwest 436 502 34,000  Level FlightAware Transoceanic
Thu 10:00:00 PM 23.3040 -152.0018 242° Southwest 436 502 34,000  Level FlightAware Transoceanic
Thu 10:01:00 PM 23.2467 -152.1183 242° Southwest 436 502 34,000  Level FlightAware Transoceanic
Thu 10:02:00 PM 23.1893 -152.2347 242° Southwest 436 502 34,000  Level FlightAware Transoceanic
Thu 10:03:00 PM 23.1319 -152.3510 242° Southwest 436 502 34,000  Level FlightAware Transoceanic
Thu 10:04:00 PM 23.0743 -152.4672 242° Southwest 436 502 34,000  Level FlightAware Transoceanic
Thu 10:05:00 PM 23.0167 -152.5833 242° Southwest 436 502 34,000  Level FlightAware Transoceanic
Thu 10:06:00 PM 22.9629 -152.6921 242° Southwest 436 502 34,000  Level FlightAware Transoceanic
Thu 10:07:00 PM 22.9091 -152.8009 242° Southwest 436 502 34,000  Level FlightAware Transoceanic
Thu 10:08:00 PM 22.8552 -152.9095 242° Southwest 436 502 34,000  Level FlightAware Transoceanic
Thu 10:08:35 PM 22.8833 -152.8667 241° Southwest 430 495 34,000  Level Honolulu Center
Thu 10:09:00 PM 22.8012 -153.0180 242° Southwest 436 502 34,000  Level FlightAware Transoceanic
Thu 10:09:36 PM 22.8167 -152.9500 229° Southwest 420 483 34,000  Level Honolulu Center
Thu 10:10:00 PM 22.7471 -153.1265 242° Southwest 436 502 34,000  Level FlightAware Transoceanic
Thu 10:10:35 PM 22.7667 -153.0833 248° West 420 483 34,000  Level Honolulu Center
Thu 10:11:00 PM 22.6930 -153.2349 242° Southwest 436 502 34,000  Level FlightAware Transoceanic
Thu 10:11:36 PM 22.7167 -153.2000 245° Southwest 420 483 34,000  Level Honolulu Center
Thu 10:12:00 PM 22.6388 -153.3432 242° Southwest 436 502 34,000  Level FlightAware Transoceanic
Thu 10:12:36 PM 22.6833 -153.3333 255° West 420 483 34,000  Level Honolulu Center
Thu 10:13:00 PM 22.5845 -153.4514 241° Southwest 436 502 34,000  Level FlightAware Transoceanic
Thu 10:13:36 PM 22.6667 -153.4500 261° West 420 483 34,000  Level Honolulu Center
Thu 10:14:36 PM 22.6333 -153.5667 253° West 420 483 34,000  Level Honolulu Center
Thu 10:15:36 PM 22.6000 -153.7000 255° West 420 483 34,000  Level Honolulu Center
Thu 10:16:36 PM 22.5667 -153.8167 253° West 420 483 34,000  Level Honolulu Center
Thu 10:17:36 PM 22.5333 -153.9333 253° West 420 483 34,000  Level Honolulu Center
Thu 10:18:36 PM 22.5000 -154.0667 255° West 420 483 34,000  Level Honolulu Center
Thu 10:19:36 PM 22.4667 -154.1833 253° West 430 495 34,000  Level Honolulu Center
Thu 10:20:36 PM 22.4333 -154.3000 253° West 420 483 34,000  Level Honolulu Center
Thu 10:21:37 PM 22.4000 -154.4167 253° West 420 483 34,000  Level Honolulu Center
Thu 10:22:37 PM 22.3833 -154.5500 262° West 430 495 34,000  Level Honolulu Center
Thu 10:23:37 PM 22.3500 -154.6667 253° West 420 483 34,000  Level Honolulu Center
Thu 10:24:37 PM 22.3167 -154.8000 255° West 420 483 34,000  Level Honolulu Center
Thu 10:25:37 PM 22.2833 -154.9167 253° West 420 483 34,000  Level Honolulu Center
Thu 10:26:37 PM 22.2500 -155.0333 253° West 420 483 34,000  Level Honolulu Center
Thu 10:27:37 PM 22.2167 -155.1500 253° West 420 483 34,000  Level Honolulu Center
Thu 10:28:37 PM 22.1833 -155.2833 255° West 420 483 34,000  Level Honolulu Center
Thu 10:29:38 PM 22.1500 -155.4000 253° West 420 483 34,000  Level Honolulu Center
Thu 10:30:37 PM 22.1167 -155.5167 253° West 420 483 34,000  Level Honolulu Center
Thu 10:31:38 PM 22.0833 -155.6333 253° West 420 483 34,000  Level Honolulu Center
Thu 10:32:38 PM 22.0500 -155.7667 255° West 420 483 34,000  Level Honolulu Center
Thu 10:33:38 PM 22.0167 -155.8833 253° West 420 483 34,000  Level Honolulu Center
Thu 10:34:38 PM 21.9833 -156.0000 253° West 420 483 34,000  Level Honolulu Center
Thu 10:35:38 PM 21.9500 -156.1167 253° West 420 483 34,000  Level Honolulu Center
Thu 10:36:38 PM 21.9167 -156.2500 255° West 420 483 34,000  Level Honolulu Center
Thu 10:37:39 PM 21.8833 -156.3667 253° West 420 483 34,000  Level Honolulu Center
Thu 10:38:38 PM 21.8500 -156.4833 253° West 420 483 34,000  Level Honolulu Center
Thu 10:39:39 PM 21.8167 -156.6000 253° West 420 483 34,000  Level Honolulu Center
Thu 10:40:39 PM 21.7833 -156.7333 255° West 420 483 34,000  Level Honolulu Center
Thu 10:41:39 PM 21.7500 -156.8500 253° West 410 472 34,000  Level Honolulu Center
Thu 10:42:39 PM 21.7167 -156.9667 253° West 420 483 34,000  Level Honolulu Center
Thu 10:43:39 PM 21.6833 -157.0833 253° West 420 483 34,000  Level Honolulu Center
Thu 10:44:39 PM 21.6500 -157.2167 255° West 420 483 34,000  Level Honolulu Center
Thu 10:45:39 PM 21.6167 -157.3333 253° West 420 483 34,000  Level Honolulu Center
Thu 10:46:39 PM 21.5833 -157.4667 255° West 420 483 34,000  Level Honolulu Center
Thu 10:47:39 PM 21.5500 -157.5833 253° West 420 483 34,000 -1,041 Level Honolulu Center
Thu 10:48:40 PM 21.5167 -157.7000 253° West 420 483 31,900 -2,628 Descending Honolulu Center
Thu 10:49:40 PM 21.4833 -157.8333 255° West 440 506 28,700 -2,750 Descending Honolulu Center
Thu 10:50:40 PM 21.4500 -157.9500 253° West 430 495 26,400 -2,100 Descending Honolulu Center
Thu 10:51:40 PM 21.4167 -158.0500 250° West 410 472 24,500 -1,800 Descending Honolulu Center
Thu 10:52:40 PM 21.3833 -158.1833 255° West 390 449 22,800 -1,750 Descending Honolulu Center
Thu 10:53:40 PM 21.3500 -158.2833 250° West 370 426 21,000 -1,884 Descending Honolulu Center
Thu 10:54:41 PM 21.3000 -158.3833 242° Southwest 370 426 19,000 -2,182 Descending Honolulu Center
Thu 10:55:41 PM 21.3000 -158.4833 270° West 360 414 16,600 -2,500 Descending Honolulu Center
Thu 10:56:41 PM 21.3500 -158.5833 298° West 350 403 14,000 -2,250 Descending Honolulu Center
Thu 10:57:41 PM 21.4000 -158.6667 303° West 340 391 12,100 -1,850 Descending Honolulu Center
Thu 10:58:41 PM 21.4500 -158.7500 303° West 340 391 10,300 -1,800 Descending Honolulu Center
Thu 10:59:41 PM 21.5000 -158.8333 303° West 330 380 8,500 -1,350 Descending Honolulu Center
Thu 11:00:41 PM 21.5500 -158.9167 303° West 320 368 7,600 -800 Descending Honolulu Center
Thu 11:01:41 PM 21.5833 -158.9833 298° West 280 322 6,900 -900 Descending Honolulu Center
Thu 11:02:41 PM 21.6333 -159.0667 303° West 270 311 5,800 -1,190 Descending Honolulu Center
Thu 11:03:42 PM 21.6667 -159.1333 298° West 270 311 4,500 -1,190 Descending Honolulu Center
Thu 11:04:42 PM 21.7000 -159.2000 298° West 260 299 3,400 -750 Descending Honolulu Center
Thu 11:05:42 PM 21.7500 -159.2667 309° West 270 311 3,000 -450 Descending Honolulu Center
Thu 11:06:42 PM 21.7833 -159.3167 306° West 250 288 2,500 -550 Descending Honolulu Center
Thu 11:07:42 PM 21.8500 -159.3333 347° North 220 253 1,900 -600 Descending Honolulu Center
Thu 11:08:42 PM 21.9000 -159.3333 360° North 150 173 1,300 -700 Descending Honolulu Center
Thu 11:09:42 PM 21.9333 -159.3333 360° North 140 161 500 -800 Descending Honolulu Center

Login

Don't have an account? Register now (free) for customized features, flight alerts, and more!